Time;durP1;ratioP1;P1;durP2;ratioP2;P2;SDS_P1;SDS_P2;PMS_P1;PMS_P2;Temp;Humidity;BMP_temperature;BMP_pressure;BME280_temperature;BME280_humidity;BME280_pressure;Samples;Min_cycle;Max_cycle;Signal;HPM_P1;HPM_P2
2022/08/05 00:00:11;;;;;;;;;6.00;4.00;;;;;22.94;58.73;100734.63;4881048;29;45339;-56
2022/08/05 00:02:37;;;;;;;;;7.00;7.00;;;;;22.82;59.35;100757.41;4880831;29;45318;-57
2022/08/05 00:05:03;;;;;;;;;4.00;4.00;;;;;23.17;58.90;100871.25;4881037;29;45543;-57
2022/08/05 00:07:28;;;;;;;;;4.75;4.00;;;;;23.28;58.32;100906.44;4880920;29;45286;-56
2022/08/05 00:09:54;;;;;;;;;4.25;3.25;;;;;23.28;57.39;100945.63;4880693;29;45360;-57
2022/08/05 00:12:19;;;;;;;;;4.00;4.00;;;;;23.18;58.34;100966.16;4881480;29;45175;-58
2022/08/05 00:14:45;;;;;;;;;6.00;6.00;;;;;23.39;57.31;101000.47;4881832;29;45227;-55
2022/08/05 00:17:10;;;;;;;;;4.75;4.00;;;;;23.20;58.10;101017.06;4880997;29;46417;-56
2022/08/05 00:19:35;;;;;;;;;4.00;4.00;;;;;23.13;59.17;101000.63;4881211;29;45305;-56
2022/08/05 00:22:01;;;;;;;;;3.75;3.75;;;;;23.22;58.36;100969.19;4881320;29;45478;-58
2022/08/05 00:24:27;;;;;;;;;5.60;4.60;;;;;23.23;58.33;100979.25;4864519;29;45381;-55
2022/08/05 00:26:52;;;;;;;;;3.50;3.50;;;;;23.25;57.41;100989.03;4880926;29;45609;-55
2022/08/05 00:29:21;;;;;;;;;5.00;3.50;;;;;23.24;56.95;101029.38;4880547;29;45371;-57
2022/08/05 00:31:47;;;;;;;;;2.80;2.80;;;;;23.04;56.80;100923.97;4880612;29;45447;-57
2022/08/05 00:34:12;;;;;;;;;4.25;3.00;;;;;23.04;56.72;100859.63;4864077;29;45684;-55
2022/08/05 00:36:38;;;;;;;;;2.75;2.50;;;;;22.78;57.57;100977.31;4880371;29;45475;-58
2022/08/05 00:39:03;;;;;;;;;3.50;3.00;;;;;22.85;57.29;101010.59;4863648;29;45344;-55
2022/08/05 00:41:30;;;;;;;;;2.75;2.25;;;;;22.90;57.55;101068.50;4863512;29;45362;-57
2022/08/05 00:43:55;;;;;;;;;5.20;4.00;;;;;22.50;57.38;101041.22;4863698;29;45434;-58
2022/08/05 00:46:21;;;;;;;;;3.00;3.00;;;;;22.56;57.41;100989.78;4880219;29;45711;-58
2022/08/05 00:48:46;;;;;;;;;3.25;2.25;;;;;22.70;57.50;100955.56;4880431;29;45438;-56
2022/08/05 00:51:12;;;;;;;;;3.50;3.50;;;;;22.85;57.04;101003.03;4876241;29;47656;-53
2022/08/05 00:53:38;;;;;;;;;5.00;3.80;;;;;22.66;56.10;100918.94;4856422;29;45428;-57
2022/08/05 00:56:04;;;;;;;;;6.50;6.50;;;;;22.89;56.03;100922.13;4879340;29;46429;-56
2022/08/05 00:58:29;;;;;;;;;7.00;4.25;;;;;22.93;56.26;100942.81;4862164;29;45444;-57
2022/08/05 01:00:55;;;;;;;;;3.25;3.25;;;;;22.87;55.95;101045.56;4864060;29;45448;-55
2022/08/05 01:03:20;;;;;;;;;6.50;6.50;;;;;22.69;56.89;101040.63;4880755;29;45669;-53
2022/08/05 01:05:46;;;;;;;;;4.00;2.75;;;;;22.66;56.77;101000.06;4879528;29;45421;-54
2022/08/05 01:08:11;;;;;;;;;7.50;5.00;;;;;22.58;56.43;100878.44;4863671;29;45284;-52
2022/08/05 01:10:43;;;;;;;;;5.75;5.75;;;;;22.63;56.22;100876.75;4880227;29;45367;-53
2022/08/05 01:13:49;;;;;;;;;8.00;7.00;;;;;22.70;56.12;101012.38;4848683;29;45493;-54
2022/08/05 01:16:23;;;;;;;;;6.60;5.00;;;;;22.47;56.71;101005.44;4869507;29;46427;-57
2022/08/05 01:18:50;;;;;;;;;4.00;3.00;;;;;22.54;56.17;101011.59;4848320;29;45430;-56
2022/08/05 01:21:24;;;;;;;;;4.00;3.00;;;;;22.56;56.61;101009.34;4848170;29;45394;-54
2022/08/05 01:24:01;;;;;;;;;3.00;3.00;;;;;22.70;56.60;101047.88;4848636;29;45476;-54
2022/08/05 01:26:39;;;;;;;;;2.00;2.00;;;;;22.56;56.38;101008.50;4863336;29;45713;-54
2022/08/05 01:29:10;;;;;;;;;4.00;4.00;;;;;22.47;56.43;100967.13;4848672;29;45262;-55
2022/08/05 01:31:41;;;;;;;;;2.60;2.60;;;;;22.28;56.54;100901.78;4863422;29;45305;-55
2022/08/05 01:34:12;;;;;;;;;3.20;3.20;;;;;22.37;56.74;100928.03;4880238;29;45376;-53
2022/08/05 01:36:44;;;;;;;;;2.00;2.00;;;;;22.39;56.53;100902.56;4863428;29;46273;-51
2022/08/05 01:39:11;;;;;;;;;2.40;2.00;;;;;22.28;56.64;100866.31;4847662;29;45276;-53
2022/08/05 01:41:36;;;;;;;;;3.00;3.00;;;;;22.38;57.07;100868.22;4848065;29;45320;-56
2022/08/05 01:44:02;;;;;;;;;4.00;2.00;;;;;22.34;56.62;100912.69;4862689;29;45447;-55
2022/08/05 01:46:27;;;;;;;;;2.50;2.50;;;;;22.40;56.62;100927.47;4879747;29;45590;-55
2022/08/05 01:48:53;;;;;;;;;3.50;2.50;;;;;22.47;56.36;100908.41;4880089;29;45388;-57
2022/08/05 01:51:18;;;;;;;;;2.75;2.75;;;;;22.47;56.27;100936.38;4863295;29;45330;-55
2022/08/05 01:53:45;;;;;;;;;3.00;3.00;;;;;22.41;56.79;100953.47;4848064;29;45447;-55
2022/08/05 01:56:11;;;;;;;;;2.80;2.80;;;;;22.42;56.93;100941.16;4882676;29;45371;-56
2022/08/05 01:58:36;;;;;;;;;2.25;2.00;;;;;22.47;57.34;100935.53;4851101;29;45762;-58
2022/08/05 02:01:02;;;;;;;;;3.50;3.50;;;;;22.42;56.78;100922.41;4821836;29;45563;-56
2022/08/05 02:03:36;;;;;;;;;3.00;3.00;;;;;22.15;57.33;100920.88;4866564;29;45637;-54
2022/08/05 02:06:04;;;;;;;;;4.60;3.00;;;;;22.21;58.48;100935.66;4883252;29;46375;-57
2022/08/05 02:08:32;;;;;;;;;2.40;2.40;;;;;22.22;55.90;100926.16;4866009;29;45408;-53
2022/08/05 02:11:12;;;;;;;;;2.80;2.80;;;;;22.33;55.77;100947.34;4882956;29;45425;-54
2022/08/05 02:13:59;;;;;;;;;1.80;1.80;;;;;22.29;56.44;100962.16;4867454;29;45480;-56
2022/08/05 02:16:27;;;;;;;;;3.00;2.00;;;;;22.39;56.47;100941.72;4852324;29;46451;-56
2022/08/05 02:19:10;;;;;;;;;2.00;2.00;;;;;22.36;56.31;100929.16;4866321;29;45451;-56
2022/08/05 02:21:38;;;;;;;;;2.20;1.40;;;;;22.54;55.23;100943.63;4866467;29;45423;-57
2022/08/05 02:24:08;;;;;;;;;0.00;0.00;;;;;22.43;54.98;100971.63;4865987;29;45444;-52
2022/08/05 02:27:00;;;;;;;;;3.00;2.00;;;;;22.40;56.98;100965.78;4882274;29;45680;-57
2022/08/05 02:29:27;;;;;;;;;6.00;3.00;;;;;22.31;57.10;100971.13;4862016;29;45320;-54
2022/08/05 02:31:53;;;;;;;;;3.20;2.60;;;;;22.05;57.88;100927.31;4882842;29;45308;-57
2022/08/05 02:34:18;;;;;;;;;2.80;2.80;;;;;22.36;57.47;100995.44;4866078;29;45774;-57
2022/08/05 02:36:47;;;;;;;;;5.00;3.00;;;;;22.33;57.50;100994.88;4865131;29;46224;-55
2022/08/05 02:39:12;;;;;;;;;3.80;3.00;;;;;22.05;58.12;100980.44;4865657;29;45456;-53
2022/08/05 02:41:38;;;;;;;;;5.75;3.00;;;;;22.11;58.15;100981.25;4865761;29;45451;-57
2022/08/05 02:44:07;;;;;;;;;5.75;3.00;;;;;22.06;57.83;100987.72;4865936;29;45383;-55
2022/08/05 02:46:34;;;;;;;;;2.60;2.60;;;;;21.96;58.52;100889.09;4865544;29;45435;-56
2022/08/05 02:48:59;;;;;;;;;4.00;4.00;;;;;21.91;57.54;100875.97;4865719;29;45452;-56
2022/08/05 02:51:25;;;;;;;;;4.25;2.50;;;;;21.99;58.00;100913.69;4865475;29;45394;-57
2022/08/05 02:53:51;;;;;;;;;3.00;3.00;;;;;21.89;58.32;100907.00;4882715;29;45363;-56
2022/08/05 02:56:16;;;;;;;;;3.50;3.50;;;;;22.01;58.43;100901.09;4882146;29;46775;-54
2022/08/05 02:58:42;;;;;;;;;4.00;2.50;;;;;22.10;57.45;100912.53;4865319;29;45427;-55
2022/08/05 03:01:14;;;;;;;;;5.00;2.75;;;;;22.13;57.51;100922.25;4882278;29;45413;-56
2022/08/05 03:03:39;;;;;;;;;2.60;2.20;;;;;22.05;55.88;100932.09;4847068;29;45336;-54
2022/08/05 03:06:06;;;;;;;;;3.00;3.00;;;;;21.94;56.71;100931.31;4845426;29;47085;-51
2022/08/05 03:08:32;;;;;;;;;2.60;2.60;;;;;22.04;55.94;100962.00;4861656;29;45372;-54
2022/08/05 03:10:58;;;;;;;;;2.00;2.00;;;;;21.78;56.38;100936.91;4863839;29;45397;-56
2022/08/05 03:13:23;;;;;;;;;1.75;1.75;;;;;21.76;56.45;100943.91;4863606;29;45228;-54
2022/08/05 03:15:48;;;;;;;;;5.25;3.75;;;;;21.92;56.44;100967.06;4862961;29;47044;-55
2022/08/05 03:18:14;;;;;;;;;3.00;3.00;;;;;21.92;56.75;100953.09;4863561;29;45404;-53
2022/08/05 03:20:40;;;;;;;;;2.75;2.75;;;;;21.80;56.94;100940.28;4846244;29;45371;-56
2022/08/05 03:23:07;;;;;;;;;2.00;2.00;;;;;21.79;57.07;100924.63;4846748;29;45591;-57
2022/08/05 03:25:33;;;;;;;;;1.40;1.40;;;;;21.92;57.30;100950.28;4846742;29;46623;-57
2022/08/05 03:27:58;;;;;;;;;1.60;1.60;;;;;21.91;56.08;100948.63;4846666;29;45390;-55
2022/08/05 03:30:25;;;;;;;;;5.25;3.00;;;;;21.98;56.28;100959.50;4846687;29;45498;-58
2022/08/05 03:32:51;;;;;;;;;3.40;3.00;;;;;21.96;56.18;100957.00;4862213;29;45488;-57
2022/08/05 03:35:16;;;;;;;;;4.25;4.25;;;;;21.96;56.63;100940.22;4862122;29;46504;-59
2022/08/05 03:37:42;;;;;;;;;1.75;1.00;;;;;21.93;55.97;100952.81;4863151;29;45395;-55
2022/08/05 03:40:08;;;;;;;;;3.00;3.00;;;;;21.96;56.33;100968.16;4861992;29;45749;-55
2022/08/05 03:42:34;;;;;;;;;3.80;2.60;;;;;21.91;56.54;100971.81;4863720;29;45286;-54
2022/08/05 03:45:00;;;;;;;;;2.50;2.25;;;;;21.58;56.17;100914.59;4863165;29;45220;-54
2022/08/05 03:47:25;;;;;;;;;4.00;2.20;;;;;21.88;56.78;100958.41;4862743;29;45336;-53
2022/08/05 03:49:51;;;;;;;;;2.00;2.00;;;;;21.89;56.96;100951.69;4863385;29;45272;-54
2022/08/05 03:52:28;;;;;;;;;3.00;3.00;;;;;21.77;57.29;100948.41;4863364;29;45286;-55
2022/08/05 03:55:00;;;;;;;;;3.00;3.00;;;;;21.93;56.89;100983.53;4861475;29;46787;-53
2022/08/05 03:57:28;;;;;;;;;3.20;3.00;;;;;21.79;57.83;100980.47;4861633;29;45237;-50
2022/08/05 04:00:04;;;;;;;;;5.00;3.40;;;;;21.63;57.56;100948.09;4861541;29;45289;-58
2022/08/05 04:02:30;;;;;;;;;2.20;2.20;;;;;21.79;57.19;100951.72;4873191;29;45482;-53
2022/08/05 04:04:57;;;;;;;;;4.80;3.60;;;;;21.80;57.23;100947.81;4864470;29;46178;-56
2022/08/05 04:07:23;;;;;;;;;4.00;3.00;;;;;21.80;57.14;100942.22;4849166;29;45443;-57
2022/08/05 04:09:48;;;;;;;;;4.75;3.00;;;;;21.81;57.19;100952.28;4864337;29;45288;-55
2022/08/05 04:12:13;;;;;;;;;5.00;5.00;;;;;21.82;57.23;100951.16;4864828;29;45270;-53
2022/08/05 04:14:39;;;;;;;;;5.50;4.00;;;;;21.80;57.35;100953.41;4881355;29;46198;-55
2022/08/05 04:17:04;;;;;;;;;3.25;2.25;;;;;21.80;56.81;100957.03;4863739;29;45352;-55
2022/08/05 04:19:30;;;;;;;;;2.00;2.00;;;;;21.74;56.77;100963.75;4864599;29;45349;-53
2022/08/05 04:21:55;;;;;;;;;2.75;2.75;;;;;21.72;57.04;100962.38;4881710;29;45144;-54
2022/08/05 04:24:21;;;;;;;;;3.00;3.00;;;;;21.67;56.84;100960.41;4880890;29;46415;-55
2022/08/05 04:26:46;;;;;;;;;4.00;4.00;;;;;21.72;56.89;100963.19;4880978;29;45267;-52
2022/08/05 04:29:12;;;;;;;;;3.50;3.50;;;;;21.55;56.87;100946.72;4881096;29;45446;-53
2022/08/05 04:31:37;;;;;;;;;2.75;2.75;;;;;21.61;56.78;100955.94;4881433;29;45274;-52
2022/08/05 04:34:03;;;;;;;;;7.00;4.00;;;;;21.51;56.53;100938.06;4880952;29;46348;-53
2022/08/05 04:36:28;;;;;;;;;3.75;3.75;;;;;21.61;56.79;100951.16;4880626;29;45308;-54
2022/08/05 04:38:53;;;;;;;;;3.00;3.00;;;;;21.57;56.58;100955.66;4881157;29;45381;-51
2022/08/05 04:41:19;;;;;;;;;4.25;3.00;;;;;21.53;56.74;100955.38;4881792;29;45307;-53
2022/08/05 04:43:45;;;;;;;;;3.00;2.50;;;;;21.49;56.42;100957.06;4880934;29;45360;-56
2022/08/05 04:46:10;;;;;;;;;2.25;2.25;;;;;21.34;56.87;100929.16;4881103;29;45381;-55
2022/08/05 04:48:36;;;;;;;;;3.50;3.50;;;;;21.54;56.78;100964.59;4881281;29;45263;-54
2022/08/05 04:51:01;;;;;;;;;1.00;1.00;;;;;21.57;56.87;100977.16;4881610;29;45312;-56
2022/08/05 04:53:27;;;;;;;;;5.00;3.25;;;;;21.55;56.92;100979.41;4880562;29;45516;-54
2022/08/05 04:55:53;;;;;;;;;3.00;3.00;;;;;21.48;57.06;100974.94;4881021;29;46040;-56
2022/08/05 04:58:18;;;;;;;;;3.00;3.00;;;;;21.52;56.83;100978.00;4881041;29;45374;-54
2022/08/05 05:00:44;;;;;;;;;3.25;2.75;;;;;21.51;57.31;100979.13;4860050;29;46008;-55
2022/08/05 05:03:10;;;;;;;;;2.75;2.75;;;;;21.56;57.00;100978.28;4863680;29;45512;-55
2022/08/05 05:05:35;;;;;;;;;4.00;4.00;;;;;21.46;57.00;100959.56;4880044;29;45340;-53
2022/08/05 05:08:05;;;;;;;;;3.50;3.50;;;;;21.47;57.00;100967.69;4880993;29;45382;-56
2022/08/05 05:10:44;;;;;;;;;3.00;3.00;;;;;21.50;57.32;100991.41;4880633;29;45624;-55
2022/08/05 05:13:14;;;;;;;;;4.60;4.60;;;;;21.48;57.13;100990.84;4863332;29;48048;-55
2022/08/05 05:15:40;;;;;;;;;6.80;4.00;;;;;21.19;57.21;100939.19;4880607;29;45553;-54
2022/08/05 05:18:06;;;;;;;;;5.80;4.60;;;;;21.59;56.95;100992.50;4880401;29;45529;-56
2022/08/05 05:20:32;;;;;;;;;3.00;3.00;;;;;21.60;56.50;100998.94;4880693;29;45580;-53
2022/08/05 05:22:58;;;;;;;;;3.60;1.20;;;;;21.59;56.41;101002.81;4880476;29;45439;-56
2022/08/05 05:25:24;;;;;;;;;3.00;2.00;;;;;21.55;56.31;101005.34;4880324;29;45408;-52
2022/08/05 05:27:51;;;;;;;;;4.40;3.20;;;;;21.42;56.26;100980.78;4880641;29;45312;-54
2022/08/05 05:30:17;;;;;;;;;2.80;1.20;;;;;21.51;56.46;101016.25;4879462;29;45220;-53
2022/08/05 05:32:42;;;;;;;;;4.00;4.00;;;;;21.58;56.05;101026.28;4880173;29;45422;-57
2022/08/05 05:35:08;;;;;;;;;2.00;2.00;;;;;21.58;56.41;101020.72;4879986;29;45267;-53
2022/08/05 05:37:33;;;;;;;;;2.60;2.40;;;;;21.43;55.97;101016.81;4880413;29;45207;-56
2022/08/05 05:39:59;;;;;;;;;4.00;2.00;;;;;21.54;56.01;101039.97;4880626;29;45157;-56
2022/08/05 05:42:24;;;;;;;;;3.75;3.00;;;;;21.51;55.86;101034.97;4879917;29;45875;-54
2022/08/05 05:44:50;;;;;;;;;3.50;2.75;;;;;21.51;56.00;101041.38;4880069;29;45303;-56
2022/08/05 05:47:15;;;;;;;;;3.00;3.00;;;;;21.55;56.20;101040.81;4863776;29;45362;-57
2022/08/05 05:49:41;;;;;;;;;3.00;3.00;;;;;21.50;56.10;101050.03;4880267;29;45566;-55
2022/08/05 05:52:06;;;;;;;;;3.75;2.75;;;;;21.38;56.32;101048.34;4879885;29;46657;-55
2022/08/05 05:54:32;;;;;;;;;3.00;3.00;;;;;21.36;56.25;101044.16;4879897;29;45517;-58
2022/08/05 05:56:57;;;;;;;;;3.00;2.00;;;;;21.38;56.38;101050.28;4880258;29;46001;-56
2022/08/05 05:59:23;;;;;;;;;3.00;3.00;;;;;21.29;56.43;101038.84;4880102;29;45543;-57
2022/08/05 06:01:48;;;;;;;;;4.50;4.00;;;;;21.28;56.82;101051.13;4879970;29;46338;-55
2022/08/05 06:04:14;;;;;;;;;2.50;2.50;;;;;21.29;56.87;101054.75;4879918;29;45514;-56
2022/08/05 06:06:41;;;;;;;;;2.25;2.00;;;;;21.29;56.99;101054.75;4880289;29;45260;-54
2022/08/05 06:09:06;;;;;;;;;3.80;3.20;;;;;21.23;56.75;101046.38;4879806;29;45319;-56
2022/08/05 06:11:32;;;;;;;;;5.00;4.00;;;;;21.19;56.67;101039.66;4880233;29;46425;-53
2022/08/05 06:13:58;;;;;;;;;3.50;3.50;;;;;21.32;56.80;101066.22;4880254;29;45704;-55
2022/08/05 06:16:24;;;;;;;;;6.80;4.60;;;;;21.29;56.91;101072.34;4880230;29;45343;-57
2022/08/05 06:18:49;;;;;;;;;2.75;2.75;;;;;21.31;56.85;101075.72;4880295;29;45587;-56
2022/08/05 06:21:15;;;;;;;;;6.25;4.00;;;;;21.37;56.42;101087.72;4879935;29;46840;-54
2022/08/05 06:23:41;;;;;;;;;4.20;3.00;;;;;21.33;56.67;101083.78;4879885;29;45458;-55
2022/08/05 06:26:06;;;;;;;;;2.50;2.50;;;;;21.34;56.70;101079.91;4879937;29;45387;-53
2022/08/05 06:28:32;;;;;;;;;6.00;5.00;;;;;21.38;56.72;101090.22;4880215;29;45438;-54
2022/08/05 06:30:57;;;;;;;;;3.50;3.50;;;;;21.37;56.80;101090.50;4879188;29;46166;-54
2022/08/05 06:33:23;;;;;;;;;3.00;3.00;;;;;21.38;56.67;101087.44;4862996;29;45249;-56
2022/08/05 06:35:48;;;;;;;;;5.50;5.00;;;;;21.37;56.48;101084.91;4879846;29;45365;-53
2022/08/05 06:38:13;;;;;;;;;6.00;4.00;;;;;21.22;56.84;101071.75;4880085;29;45280;-53
2022/08/05 06:40:41;;;;;;;;;4.00;4.00;;;;;21.11;56.78;101049.44;4880127;29;45604;-56
2022/08/05 06:43:06;;;;;;;;;2.80;2.80;;;;;21.30;56.63;101078.75;4882645;29;45411;-51
2022/08/05 06:45:32;;;;;;;;;4.00;4.00;;;;;21.35;57.10;101081.56;4882936;29;45417;-54
2022/08/05 06:47:57;;;;;;;;;3.75;3.25;;;;;21.35;56.95;101081.56;4883265;29;45344;-53
2022/08/05 06:50:23;;;;;;;;;4.50;4.50;;;;;21.35;57.03;101087.16;4881882;29;46463;-56
2022/08/05 06:52:49;;;;;;;;;7.00;3.80;;;;;21.36;56.97;101089.66;4882959;29;45416;-53
2022/08/05 06:55:16;;;;;;;;;5.00;5.00;;;;;21.40;56.56;101087.16;4882876;29;45696;-54
2022/08/05 06:57:41;;;;;;;;;5.20;5.20;;;;;21.43;57.02;101092.19;4883157;29;45403;-57
2022/08/05 07:00:07;;;;;;;;;5.50;5.00;;;;;21.44;56.91;101085.47;4882332;29;46679;-57
2022/08/05 07:02:41;;;;;;;;;4.80;4.80;;;;;21.46;56.76;101077.66;4882853;29;45882;-55
2022/08/05 07:05:07;;;;;;;;;5.00;4.00;;;;;21.51;56.77;101088.84;4865569;29;45440;-55
2022/08/05 07:07:32;;;;;;;;;3.00;3.00;;;;;21.51;56.67;101074.06;4882844;29;45487;-56
2022/08/05 07:09:57;;;;;;;;;5.00;5.00;;;;;21.52;56.38;101084.09;4882337;29;46461;-55
2022/08/05 07:18:06;;;;;;;;;5.00;4.80;;;;;21.62;56.12;101097.22;4847259;29;45394;-56
2022/08/05 07:20:31;;;;;;;;;7.25;6.00;;;;;21.54;56.23;101095.81;4882274;29;46010;-57
2022/08/05 07:22:57;;;;;;;;;8.00;5.75;;;;;21.49;56.63;101107.81;4868432;29;45372;-60
2022/08/05 07:25:22;;;;;;;;;11.25;8.25;;;;;21.60;56.73;101110.66;4866361;29;45527;-56
2022/08/05 07:27:48;;;;;;;;;7.75;5.50;;;;;21.62;56.81;101103.63;4882871;29;45276;-53
2022/08/05 07:30:14;;;;;;;;;6.20;5.20;;;;;21.47;56.78;101095.25;4865393;29;46573;-55
2022/08/05 07:32:39;;;;;;;;;7.00;4.50;;;;;21.67;56.61;101116.78;4865721;29;45407;-54
2022/08/05 07:35:09;;;;;;;;;6.75;4.25;;;;;21.74;56.18;101117.38;4865127;29;45336;-55
2022/08/05 07:37:35;;;;;;;;;5.00;5.00;;;;;21.79;55.99;101122.94;4865557;29;45435;-58
2022/08/05 07:40:00;;;;;;;;;5.00;5.00;;;;;21.86;56.12;101128.28;4882084;29;46834;-55
2022/08/05 07:42:26;;;;;;;;;5.25;3.75;;;;;21.66;56.00;101098.34;4881287;29;45385;-55
2022/08/05 07:44:51;;;;;;;;;7.50;7.00;;;;;21.85;56.22;101122.97;4865673;29;45383;-57
2022/08/05 07:47:17;;;;;;;;;6.25;6.00;;;;;21.90;56.05;101125.75;4865768;29;45226;-57
2022/08/05 07:49:42;;;;;;;;;8.50;6.50;;;;;22.04;55.96;101134.44;4881663;29;45995;-57
2022/08/05 07:52:08;;;;;;;;;7.00;7.00;;;;;22.06;55.76;101144.22;4881378;29;45244;-52
2022/08/05 07:54:33;;;;;;;;;9.25;6.75;;;;;22.04;55.95;101154.00;4881829;29;45282;-54
2022/08/05 07:57:02;;;;;;;;;5.50;5.50;;;;;21.97;55.88;101148.66;4850200;29;45427;-58
2022/08/05 07:59:28;;;;;;;;;8.00;8.00;;;;;22.01;55.88;101147.00;4849103;29;45863;-57
2022/08/05 08:01:53;;;;;;;;;6.00;6.00;;;;;22.01;56.11;101146.16;4864981;29;45395;-57
2022/08/05 08:04:19;;;;;;;;;6.00;6.00;;;;;21.89;56.62;101149.22;4865109;29;45402;-58
2022/08/05 08:06:44;;;;;;;;;4.75;4.75;;;;;22.01;56.70;101149.78;4881521;29;45369;-57
2022/08/05 08:09:10;;;;;;;;;7.25;6.00;;;;;22.10;55.94;101155.66;4881674;29;46645;-56
2022/08/05 08:11:35;;;;;;;;;6.00;6.00;;;;;22.15;55.74;101154.81;4881404;29;45403;-56
2022/08/05 08:14:01;;;;;;;;;6.50;5.00;;;;;22.13;55.60;101152.28;4864879;29;45376;-57
2022/08/05 08:16:27;;;;;;;;;8.25;7.25;;;;;22.20;55.47;101152.03;4881644;29;45359;-57
2022/08/05 08:18:53;;;;;;;;;7.80;6.80;;;;;22.32;55.47;101163.72;4881685;29;45369;-58
2022/08/05 08:21:18;;;;;;;;;4.25;4.00;;;;;22.39;55.22;101173.78;4881369;29;45369;-54
2022/08/05 08:23:44;;;;;;;;;5.50;5.50;;;;;22.25;54.86;101154.78;4881497;29;45474;-57
2022/08/05 08:26:09;;;;;;;;;5.00;5.00;;;;;22.39;55.27;101184.97;4881520;29;45788;-57
2022/08/05 08:28:35;;;;;;;;;6.00;5.00;;;;;22.43;55.29;101183.31;4871396;29;45743;-57
2022/08/05 08:31:00;;;;;;;;;6.75;5.50;;;;;22.48;55.53;101192.50;4881365;29;45312;-53
2022/08/05 08:33:26;;;;;;;;;7.50;5.50;;;;;22.47;54.99;101184.44;4879945;29;45406;-56
2022/08/05 08:35:51;;;;;;;;;4.75;3.50;;;;;22.52;54.88;101187.22;4881802;29;45406;-57
2022/08/05 08:38:16;;;;;;;;;5.50;5.50;;;;;22.39;55.06;101173.78;4881327;29;46609;-51
2022/08/05 08:40:42;;;;;;;;;6.25;6.00;;;;;22.53;54.78;101194.50;4880850;29;45352;-55
2022/08/05 08:43:10;;;;;;;;;5.75;5.75;;;;;22.54;54.27;101189.75;4881604;29;45339;-53
2022/08/05 08:45:36;;;;;;;;;5.60;5.60;;;;;22.64;54.59;101197.28;4864695;29;45389;-55
2022/08/05 08:48:03;;;;;;;;;6.00;5.50;;;;;22.72;54.17;101196.69;4881107;29;46701;-57
2022/08/05 08:50:29;;;;;;;;;7.60;4.80;;;;;22.73;53.24;101199.22;4864517;29;45397;-57
2022/08/05 08:52:58;;;;;;;;;6.00;6.00;;;;;22.79;53.16;101216.00;4881292;29;45380;-58
2022/08/05 08:55:24;;;;;;;;;8.20;6.80;;;;;22.78;53.11;101203.13;4849139;29;45543;-58
2022/08/05 08:57:49;;;;;;;;;5.50;5.00;;;;;22.79;53.46;101214.00;4863974;29;46837;-55
2022/08/05 09:00:15;;;;;;;;;7.75;7.00;;;;;22.79;53.19;101197.22;4848832;29;45354;-56
2022/08/05 09:02:41;;;;;;;;;6.50;5.50;;;;;22.92;53.32;101203.34;4881088;29;45352;-55
2022/08/05 09:05:08;;;;;;;;;7.25;5.75;;;;;22.98;52.57;101217.06;4880944;29;45338;-55
2022/08/05 09:07:33;;;;;;;;;5.60;4.40;;;;;22.85;51.88;101187.69;4848603;29;45802;-55
2022/08/05 09:09:58;;;;;;;;;8.00;6.25;;;;;23.01;51.99;101207.25;4863417;29;45324;-54
2022/08/05 09:12:24;;;;;;;;;7.00;5.75;;;;;23.04;51.47;101215.06;4863575;29;45320;-54
2022/08/05 09:14:49;;;;;;;;;4.75;4.75;;;;;23.06;51.07;101212.84;4864372;29;45219;-55
2022/08/05 09:17:15;;;;;;;;;7.00;4.75;;;;;23.06;51.22;101212.84;4880679;29;46360;-53
2022/08/05 09:19:40;;;;;;;;;6.00;5.00;;;;;23.00;51.04;101203.59;4880843;29;45374;-53
2022/08/05 09:22:07;;;;;;;;;5.00;5.00;;;;;23.12;50.59;101210.84;4863695;29;45335;-54
2022/08/05 09:24:36;;;;;;;;;6.60;6.00;;;;;23.07;51.21;101197.72;4864252;29;45726;-52
2022/08/05 09:27:01;;;;;;;;;9.40;7.20;;;;;23.27;51.40;101229.56;4880283;29;45955;-52
2022/08/05 09:29:44;;;;;;;;;6.00;6.00;;;;;23.26;50.59;101211.91;4848393;29;45259;-56
2022/08/05 09:32:10;;;;;;;;;5.00;5.00;;;;;23.34;51.05;101230.09;4880720;29;45387;-55
2022/08/05 09:34:52;;;;;;;;;8.75;8.75;;;;;23.38;50.56;101221.97;4880825;29;45595;-57
2022/08/05 09:37:19;;;;;;;;;5.00;5.00;;;;;23.39;50.60;101215.25;4880253;29;45433;-58
2022/08/05 09:39:45;;;;;;;;;6.00;4.20;;;;;23.44;50.70;101223.63;4880523;29;45444;-57
2022/08/05 09:42:10;;;;;;;;;5.25;5.25;;;;;23.46;50.51;101221.34;4863590;29;45208;-57
2022/08/05 09:44:41;;;;;;;;;7.50;5.00;;;;;23.31;50.57;101202.66;4880934;29;45613;-52
2022/08/05 09:47:13;;;;;;;;;8.00;6.40;;;;;23.50;49.99;101216.88;4863449;29;45913;-56
2022/08/05 09:49:46;;;;;;;;;5.00;5.00;;;;;23.57;49.94;101221.31;4880587;29;45405;-54
2022/08/05 09:52:32;;;;;;;;;6.80;6.20;;;;;23.58;49.28;101237.00;4863936;29;45562;-56
2022/08/05 09:55:05;;;;;;;;;4.60;4.60;;;;;23.59;49.05;101224.66;4880567;29;45544;-56
2022/08/05 09:57:30;;;;;;;;;8.20;7.20;;;;;23.46;49.50;101200.91;4863718;29;45941;-57
2022/08/05 09:59:57;;;;;;;;;6.50;6.50;;;;;23.73;48.86;101225.69;4880351;29;45289;-55
2022/08/05 10:02:31;;;;;;;;;9.60;8.60;;;;;23.84;49.09;101237.66;4847548;29;45444;-57
2022/08/05 10:05:03;;;;;;;;;8.80;7.60;;;;;23.86;48.47;101226.16;4858944;29;45358;-59
2022/08/05 10:08:00;;;;;;;;;6.00;6.00;;;;;23.90;49.09;101222.50;4859891;29;45514;-55
2022/08/05 10:10:26;;;;;;;;;8.00;8.00;;;;;24.02;49.11;101230.53;4864783;29;45479;-55
2022/08/05 10:12:54;;;;;;;;;5.20;5.20;;;;;23.92;48.94;101197.84;4844285;29;45743;-59
2022/08/05 10:15:38;;;;;;;;;9.60;9.60;;;;;24.07;48.95;101213.69;4877294;29;45383;-52
2022/08/05 10:18:04;;;;;;;;;9.40;8.00;;;;;24.21;48.84;101227.06;4881896;29;46619;-56
2022/08/05 10:20:54;;;;;;;;;9.00;7.00;;;;;24.30;48.61;101214.09;4878427;29;45347;-55
2022/08/05 10:23:20;;;;;;;;;9.20;9.20;;;;;24.43;48.49;101225.75;4865051;29;45347;-59
2022/08/05 10:25:46;;;;;;;;;9.80;9.60;;;;;24.40;48.19;101220.72;4881811;29;45360;-57
2022/08/05 10:28:11;;;;;;;;;11.00;10.25;;;;;24.29;47.42;101231.19;4881019;29;46275;-61
2022/08/05 10:30:37;;;;;;;;;9.00;8.50;;;;;24.33;47.35;101221.09;4865306;29;45441;-51
2022/08/05 10:33:03;;;;;;;;;10.20;9.20;;;;;24.29;47.16;101239.63;4881801;29;45370;-56
2022/08/05 10:35:32;;;;;;;;;7.25;7.25;;;;;24.08;46.69;101208.94;4881847;29;45638;-56
2022/08/05 10:37:59;;;;;;;;;6.20;6.20;;;;;24.32;46.76;101230.59;4882116;29;47165;-58
2022/08/05 10:40:33;;;;;;;;;6.20;6.20;;;;;24.46;47.12;101234.44;4848787;29;45513;-58
2022/08/05 10:43:05;;;;;;;;;10.60;9.00;;;;;24.49;46.61;101211.38;4881641;29;45363;-55
2022/08/05 10:45:31;;;;;;;;;11.60;10.00;;;;;24.75;44.55;101229.91;4850509;29;45553;-58
2022/08/05 10:47:56;;;;;;;;;11.75;8.25;;;;;24.83;44.26;101236.88;4864373;29;46763;-54
2022/08/05 10:50:22;;;;;;;;;7.00;7.00;;;;;24.88;44.21;101217.19;4882365;29;45411;-57
2022/08/05 10:52:58;;;;;;;;;8.00;8.00;;;;;24.81;44.40;101197.88;4864401;29;45363;-55
2022/08/05 10:55:24;;;;;;;;;9.60;7.80;;;;;25.12;45.06;101242.44;4867204;29;45376;-54
2022/08/05 10:58:10;;;;;;;;;9.40;7.40;;;;;25.20;44.81;101238.16;4865855;29;46811;-54
2022/08/05 11:00:36;;;;;;;;;7.40;7.40;;;;;25.19;43.92;101216.84;4865546;29;45320;-57
2022/08/05 11:03:04;;;;;;;;;8.25;6.50;;;;;25.33;44.26;101242.19;4850074;29;45382;-58
2022/08/05 11:05:30;;;;;;;;;6.60;6.00;;;;;25.28;44.01;101245.06;4881286;29;45610;-56
2022/08/05 11:07:59;;;;;;;;;6.50;6.50;;;;;25.37;42.70;101237.66;4852676;29;46290;-57
2022/08/05 11:10:26;;;;;;;;;8.80;8.20;;;;;25.56;43.37;101246.13;4873754;29;46042;-56
2022/08/05 11:12:51;;;;;;;;;8.80;7.00;;;;;25.74;42.62;101242.81;4882484;29;45336;-56
2022/08/05 11:15:26;;;;;;;;;6.50;6.50;;;;;25.86;43.08;101246.00;4865989;29;45291;-57
2022/08/05 11:17:52;;;;;;;;;8.20;7.60;;;;;25.96;42.83;101245.84;4882148;29;45842;-57
2022/08/05 11:20:31;;;;;;;;;8.20;8.20;;;;;26.07;42.24;101251.31;4865681;29;45367;-56
2022/08/05 11:22:56;;;;;;;;;9.40;8.00;;;;;26.07;42.54;101254.13;4865326;29;45494;-56
2022/08/05 11:25:43;;;;;;;;;6.00;6.00;;;;;26.06;42.86;101250.47;4881980;29;45553;-60
2022/08/05 11:28:08;;;;;;;;;7.60;7.00;;;;;26.04;41.73;101249.94;4849983;29;46683;-59
2022/08/05 11:33:31;;;;;;;;;6.20;6.20;;;;;25.72;43.26;101237.50;4881841;29;45316;-64